sensor_id;sensor_type;location;lat;lon;timestamp;P1;durP1;ratioP1;P2;durP2;ratioP2
42006;SDS011;27696;42.704;23.304;2024-01-30T18:05:46;15.10;;;7.93;;
42006;SDS011;27696;42.704;23.304;2024-01-30T18:08:12;16.30;;;9.20;;
42006;SDS011;27696;42.704;23.304;2024-01-30T18:10:37;12.23;;;8.38;;
42006;SDS011;27696;42.704;23.304;2024-01-30T18:13:03;12.68;;;7.95;;
42006;SDS011;27696;42.704;23.304;2024-01-30T18:15:30;17.95;;;8.85;;
42006;SDS011;27696;42.704;23.304;2024-01-30T18:17:56;13.45;;;8.45;;
42006;SDS011;27696;42.704;23.304;2024-01-30T18:20:22;12.85;;;8.23;;
42006;SDS011;27696;42.704;23.304;2024-01-30T18:22:47;13.27;;;9.10;;
42006;SDS011;27696;42.704;23.304;2024-01-30T18:25:13;13.07;;;8.68;;
42006;SDS011;27696;42.704;23.304;2024-01-30T18:27:39;16.10;;;8.73;;
42006;SDS011;27696;42.704;23.304;2024-01-30T18:30:04;13.57;;;8.40;;
42006;SDS011;27696;42.704;23.304;2024-01-30T18:32:30;16.02;;;8.25;;
42006;SDS011;27696;42.704;23.304;2024-01-30T18:34:56;17.02;;;8.77;;
42006;SDS011;27696;42.704;23.304;2024-01-30T18:37:27;15.80;;;8.20;;
42006;SDS011;27696;42.704;23.304;2024-01-30T18:39:53;17.00;;;9.25;;
42006;SDS011;27696;42.704;23.304;2024-01-30T18:42:18;13.52;;;8.68;;
42006;SDS011;27696;42.704;23.304;2024-01-30T18:44:44;13.90;;;8.02;;
42006;SDS011;27696;42.704;23.304;2024-01-30T18:47:10;13.48;;;8.25;;
42006;SDS011;27696;42.704;23.304;2024-01-30T18:49:35;13.48;;;8.38;;
42006;SDS011;27696;42.704;23.304;2024-01-30T18:52:01;14.80;;;8.45;;
42006;SDS011;27696;42.704;23.304;2024-01-30T18:54:28;15.07;;;8.18;;
42006;SDS011;27696;42.704;23.304;2024-01-30T18:56:53;15.55;;;8.18;;
42006;SDS011;27696;42.704;23.304;2024-01-30T18:59:19;12.57;;;7.82;;
42006;SDS011;27696;42.704;23.304;2024-01-30T19:01:45;11.85;;;7.28;;
42006;SDS011;27696;42.704;23.304;2024-01-30T19:04:10;15.65;;;8.07;;
42006;SDS011;27696;42.704;23.304;2024-01-30T19:06:36;13.73;;;8.38;;
42006;SDS011;27696;42.704;23.304;2024-01-30T19:09:02;14.18;;;8.43;;
42006;SDS011;27696;42.704;23.304;2024-01-30T19:11:33;12.73;;;7.82;;
42006;SDS011;27696;42.704;23.304;2024-01-30T19:13:59;11.90;;;7.72;;
42006;SDS011;27696;42.704;23.304;2024-01-30T19:16:24;14.95;;;8.02;;
42006;SDS011;27696;42.704;23.304;2024-01-30T19:18:50;14.13;;;8.18;;
42006;SDS011;27696;42.704;23.304;2024-01-30T19:21:16;15.63;;;8.48;;
42006;SDS011;27696;42.704;23.304;2024-01-30T19:23:42;15.60;;;8.07;;
42006;SDS011;27696;42.704;23.304;2024-01-30T19:26:08;13.40;;;7.88;;
42006;SDS011;27696;42.704;23.304;2024-01-30T19:28:33;15.68;;;8.32;;
42006;SDS011;27696;42.704;23.304;2024-01-30T19:30:59;12.88;;;8.15;;
42006;SDS011;27696;42.704;23.304;2024-01-30T19:33:26;18.05;;;8.90;;
42006;SDS011;27696;42.704;23.304;2024-01-30T19:35:52;14.13;;;8.05;;
42006;SDS011;27696;42.704;23.304;2024-01-30T19:38:18;16.20;;;8.60;;
42006;SDS011;27696;42.704;23.304;2024-01-30T19:40:44;14.52;;;8.07;;
42006;SDS011;27696;42.704;23.304;2024-01-30T19:43:09;14.23;;;8.13;;
42006;SDS011;27696;42.704;23.304;2024-01-30T19:45:35;14.10;;;9.20;;
42006;SDS011;27696;42.704;23.304;2024-01-30T19:48:00;25.17;;;12.48;;
42006;SDS011;27696;42.704;23.304;2024-01-30T19:50:26;36.92;;;12.35;;
42006;SDS011;27696;42.704;23.304;2024-01-30T19:52:52;23.38;;;12.55;;
42006;SDS011;27696;42.704;23.304;2024-01-30T19:55:17;28.33;;;14.13;;
42006;SDS011;27696;42.704;23.304;2024-01-30T19:57:43;26.95;;;15.40;;
42006;SDS011;27696;42.704;23.304;2024-01-30T20:00:09;28.60;;;15.63;;
42006;SDS011;27696;42.704;23.304;2024-01-30T20:02:36;31.13;;;14.95;;
42006;SDS011;27696;42.704;23.304;2024-01-30T20:05:02;24.48;;;13.38;;
42006;SDS011;27696;42.704;23.304;2024-01-30T20:07:27;25.45;;;14.57;;
42006;SDS011;27696;42.704;23.304;2024-01-30T20:09:53;29.67;;;14.95;;
42006;SDS011;27696;42.704;23.304;2024-01-30T20:12:18;35.38;;;18.95;;
42006;SDS011;27696;42.704;23.304;2024-01-30T20:14:44;43.45;;;22.25;;
42006;SDS011;27696;42.704;23.304;2024-01-30T20:17:09;40.55;;;22.08;;
42006;SDS011;27696;42.704;23.304;2024-01-30T20:19:39;44.83;;;23.75;;
42006;SDS011;27696;42.704;23.304;2024-01-30T20:22:05;39.45;;;21.65;;
42006;SDS011;27696;42.704;23.304;2024-01-30T20:24:31;42.47;;;23.27;;
42006;SDS011;27696;42.704;23.304;2024-01-30T20:26:56;49.35;;;23.45;;
42006;SDS011;27696;42.704;23.304;2024-01-30T20:29:22;45.90;;;24.75;;
42006;SDS011;27696;42.704;23.304;2024-01-30T20:31:48;52.85;;;27.77;;
42006;SDS011;27696;42.704;23.304;2024-01-30T20:34:14;63.28;;;31.73;;
42006;SDS011;27696;42.704;23.304;2024-01-30T20:36:42;62.58;;;31.70;;
42006;SDS011;27696;42.704;23.304;2024-01-30T20:39:12;60.72;;;32.78;;
42006;SDS011;27696;42.704;23.304;2024-01-30T20:41:38;55.72;;;29.70;;
42006;SDS011;27696;42.704;23.304;2024-01-30T20:44:04;53.00;;;27.75;;
42006;SDS011;27696;42.704;23.304;2024-01-30T20:46:30;49.50;;;28.95;;
42006;SDS011;27696;42.704;23.304;2024-01-30T20:48:55;54.85;;;27.13;;
42006;SDS011;27696;42.704;23.304;2024-01-30T20:51:21;53.25;;;29.67;;
42006;SDS011;27696;42.704;23.304;2024-01-30T20:53:46;60.95;;;31.55;;
42006;SDS011;27696;42.704;23.304;2024-01-30T20:56:11;61.67;;;33.25;;
42006;SDS011;27696;42.704;23.304;2024-01-30T20:58:38;60.50;;;31.25;;
42006;SDS011;27696;42.704;23.304;2024-01-30T21:01:04;55.20;;;28.90;;
42006;SDS011;27696;42.704;23.304;2024-01-30T21:03:30;68.80;;;33.53;;
42006;SDS011;27696;42.704;23.304;2024-01-30T21:05:57;65.65;;;31.95;;
42006;SDS011;27696;42.704;23.304;2024-01-30T21:08:23;69.47;;;32.47;;
42006;SDS011;27696;42.704;23.304;2024-01-30T21:10:49;62.78;;;33.67;;
42006;SDS011;27696;42.704;23.304;2024-01-30T21:13:15;64.97;;;35.35;;
42006;SDS011;27696;42.704;23.304;2024-01-30T21:15:40;69.75;;;35.70;;
42006;SDS011;27696;42.704;23.304;2024-01-30T21:18:07;62.05;;;34.45;;
42006;SDS011;27696;42.704;23.304;2024-01-30T21:20:33;66.05;;;33.58;;
42006;SDS011;27696;42.704;23.304;2024-01-30T21:22:59;59.20;;;29.95;;
42006;SDS011;27696;42.704;23.304;2024-01-30T21:25:25;58.17;;;27.85;;
42006;SDS011;27696;42.704;23.304;2024-01-30T21:27:51;56.08;;;29.50;;
42006;SDS011;27696;42.704;23.304;2024-01-30T21:30:21;62.25;;;32.22;;
42006;SDS011;27696;42.704;23.304;2024-01-30T21:32:46;53.15;;;29.10;;
42006;SDS011;27696;42.704;23.304;2024-01-30T21:35:12;56.83;;;27.05;;
42006;SDS011;27696;42.704;23.304;2024-01-30T21:37:38;53.17;;;27.75;;
42006;SDS011;27696;42.704;23.304;2024-01-30T21:40:05;52.95;;;27.13;;
42006;SDS011;27696;42.704;23.304;2024-01-30T21:42:32;47.90;;;26.52;;
42006;SDS011;27696;42.704;23.304;2024-01-30T21:44:57;51.22;;;26.58;;
42006;SDS011;27696;42.704;23.304;2024-01-30T21:47:23;45.40;;;25.42;;
42006;SDS011;27696;42.704;23.304;2024-01-30T21:49:48;50.03;;;26.80;;
42006;SDS011;27696;42.704;23.304;2024-01-30T21:52:14;49.05;;;25.92;;
42006;SDS011;27696;42.704;23.304;2024-01-30T21:54:40;45.30;;;25.33;;
42006;SDS011;27696;42.704;23.304;2024-01-30T21:57:06;47.53;;;25.55;;
42006;SDS011;27696;42.704;23.304;2024-01-30T21:59:31;52.75;;;26.25;;
42006;SDS011;27696;42.704;23.304;2024-01-30T22:01:57;57.13;;;27.00;;
42006;SDS011;27696;42.704;23.304;2024-01-30T22:04:23;50.65;;;27.38;;
42006;SDS011;27696;42.704;23.304;2024-01-30T22:06:49;49.08;;;27.60;;
42006;SDS011;27696;42.704;23.304;2024-01-30T22:09:14;52.92;;;27.73;;
42006;SDS011;27696;42.704;23.304;2024-01-30T22:11:40;69.30;;;33.65;;
42006;SDS011;27696;42.704;23.304;2024-01-30T22:14:06;58.95;;;30.15;;
42006;SDS011;27696;42.704;23.304;2024-01-30T22:16:32;66.47;;;32.05;;
42006;SDS011;27696;42.704;23.304;2024-01-30T22:18:57;64.97;;;31.58;;
42006;SDS011;27696;42.704;23.304;2024-01-30T22:21:22;65.13;;;32.42;;
42006;SDS011;27696;42.704;23.304;2024-01-30T22:23:48;66.47;;;32.80;;
42006;SDS011;27696;42.704;23.304;2024-01-30T22:26:14;81.05;;;38.28;;
42006;SDS011;27696;42.704;23.304;2024-01-30T22:28:40;71.60;;;35.83;;
42006;SDS011;27696;42.704;23.304;2024-01-30T22:31:05;78.35;;;36.92;;
42006;SDS011;27696;42.704;23.304;2024-01-30T22:33:31;77.45;;;37.60;;
42006;SDS011;27696;42.704;23.304;2024-01-30T22:35:57;77.25;;;36.65;;
42006;SDS011;27696;42.704;23.304;2024-01-30T22:38:22;69.32;;;36.30;;
42006;SDS011;27696;42.704;23.304;2024-01-30T22:40:48;75.95;;;35.70;;
42006;SDS011;27696;42.704;23.304;2024-01-30T22:43:13;61.28;;;33.65;;
42006;SDS011;27696;42.704;23.304;2024-01-30T22:45:39;63.15;;;32.72;;
42006;SDS011;27696;42.704;23.304;2024-01-30T22:48:04;56.03;;;29.27;;
42006;SDS011;27696;42.704;23.304;2024-01-30T22:50:30;52.00;;;26.35;;
42006;SDS011;27696;42.704;23.304;2024-01-30T22:52:55;57.45;;;28.48;;
42006;SDS011;27696;42.704;23.304;2024-01-30T22:55:21;48.47;;;25.88;;
42006;SDS011;27696;42.704;23.304;2024-01-30T22:57:48;44.35;;;23.45;;
42006;SDS011;27696;42.704;23.304;2024-01-30T23:00:14;40.72;;;21.98;;
42006;SDS011;27696;42.704;23.304;2024-01-30T23:02:40;40.10;;;21.58;;
42006;SDS011;27696;42.704;23.304;2024-01-30T23:05:07;38.88;;;21.20;;
42006;SDS011;27696;42.704;23.304;2024-01-30T23:07:33;38.42;;;20.48;;
42006;SDS011;27696;42.704;23.304;2024-01-30T23:10:07;32.13;;;17.50;;
42006;SDS011;27696;42.704;23.304;2024-01-30T23:12:34;32.47;;;17.23;;
42006;SDS011;27696;42.704;23.304;2024-01-30T23:15:03;29.88;;;16.77;;
42006;SDS011;27696;42.704;23.304;2024-01-30T23:17:29;29.63;;;18.38;;
42006;SDS011;27696;42.704;23.304;2024-01-30T23:19:57;33.13;;;17.63;;
42006;SDS011;27696;42.704;23.304;2024-01-30T23:22:22;31.17;;;17.30;;
42006;SDS011;27696;42.704;23.304;2024-01-30T23:24:49;37.22;;;18.17;;
42006;SDS011;27696;42.704;23.304;2024-01-30T23:27:14;32.47;;;17.52;;
42006;SDS011;27696;42.704;23.304;2024-01-30T23:29:40;33.42;;;18.05;;
42006;SDS011;27696;42.704;23.304;2024-01-30T23:32:05;31.17;;;17.88;;
42006;SDS011;27696;42.704;23.304;2024-01-30T23:34:31;30.48;;;17.20;;
42006;SDS011;27696;42.704;23.304;2024-01-30T23:36:57;31.27;;;17.88;;
42006;SDS011;27696;42.704;23.304;2024-01-30T23:39:23;28.88;;;16.00;;
42006;SDS011;27696;42.704;23.304;2024-01-30T23:41:49;29.60;;;17.02;;
42006;SDS011;27696;42.704;23.304;2024-01-30T23:44:14;32.90;;;18.05;;
42006;SDS011;27696;42.704;23.304;2024-01-30T23:46:40;34.10;;;18.77;;
42006;SDS011;27696;42.704;23.304;2024-01-30T23:49:05;32.83;;;18.55;;
42006;SDS011;27696;42.704;23.304;2024-01-30T23:51:31;33.30;;;18.15;;
42006;SDS011;27696;42.704;23.304;2024-01-30T23:53:56;29.70;;;17.30;;
42006;SDS011;27696;42.704;23.304;2024-01-30T23:56:22;34.88;;;19.45;;
42006;SDS011;27696;42.704;23.304;2024-01-30T23:58:47;34.38;;;19.17;;
